sensor_id;sensor_type;location;lat;lon;timestamp;pressure;altitude;pressure_sealevel;temperature;humidity
44349;BME280;30068;50.986;4.564;2022-12-24T00:00:55;100873.72;;;17.30;68.73
44349;BME280;30068;50.986;4.564;2022-12-24T00:03:21;100879.28;;;17.28;68.93
44349;BME280;30068;50.986;4.564;2022-12-24T00:05:46;100881.47;;;17.25;68.95
44349;BME280;30068;50.986;4.564;2022-12-24T00:08:11;100883.97;;;17.26;68.86
44349;BME280;30068;50.986;4.564;2022-12-24T00:10:36;100889.56;;;17.25;69.02
44349;BME280;30068;50.986;4.564;2022-12-24T00:13:02;100881.47;;;17.25;68.87
44349;BME280;30068;50.986;4.564;2022-12-24T00:15:27;100889.22;;;17.28;68.79
44349;BME280;30068;50.986;4.564;2022-12-24T00:17:52;100890.56;;;17.24;69.07
44349;BME280;30068;50.986;4.564;2022-12-24T00:20:18;100889.22;;;17.20;69.09
44349;BME280;30068;50.986;4.564;2022-12-24T00:22:43;100896.13;;;17.30;68.79
44349;BME280;30068;50.986;4.564;2022-12-24T00:25:08;100897.31;;;17.28;68.87
44349;BME280;30068;50.986;4.564;2022-12-24T00:27:34;100896.28;;;17.21;69.10
44349;BME280;30068;50.986;4.564;2022-12-24T00:29:59;100894.78;;;17.26;68.69
44349;BME280;30068;50.986;4.564;2022-12-24T00:32:24;100908.78;;;17.22;68.99
44349;BME280;30068;50.986;4.564;2022-12-24T00:34:49;100907.44;;;17.18;69.10
44349;BME280;30068;50.986;4.564;2022-12-24T00:37:14;100914.19;;;17.30;68.46
44349;BME280;30068;50.986;4.564;2022-12-24T00:39:40;100919.22;;;17.25;68.89
44349;BME280;30068;50.986;4.564;2022-12-24T00:42:05;100915.00;;;17.22;68.95
44349;BME280;30068;50.986;4.564;2022-12-24T00:44:30;100912.00;;;17.25;68.89
44349;BME280;30068;50.986;4.564;2022-12-24T00:46:55;100924.09;;;17.21;69.19
44349;BME280;30068;50.986;4.564;2022-12-24T00:49:21;100933.38;;;17.19;69.10
44349;BME280;30068;50.986;4.564;2022-12-24T00:51:46;100934.56;;;17.24;69.08
44349;BME280;30068;50.986;4.564;2022-12-24T00:54:12;100934.03;;;17.21;68.98
44349;BME280;30068;50.986;4.564;2022-12-24T00:56:37;100924.09;;;17.21;69.25
44349;BME280;30068;50.986;4.564;2022-12-24T00:59:03;100923.25;;;17.21;69.20
44349;BME280;30068;50.986;4.564;2022-12-24T01:01:28;100933.56;;;17.17;69.27
44349;BME280;30068;50.986;4.564;2022-12-24T01:03:53;100932.34;;;17.20;69.14
44349;BME280;30068;50.986;4.564;2022-12-24T01:06:38;100935.41;;;17.17;69.30
44349;BME280;30068;50.986;4.564;2022-12-24T01:09:03;100937.25;;;17.16;69.21
44349;BME280;30068;50.986;4.564;2022-12-24T01:11:28;100941.81;;;17.16;69.23
44349;BME280;30068;50.986;4.564;2022-12-24T01:13:54;100944.50;;;17.16;69.30
44349;BME280;30068;50.986;4.564;2022-12-24T01:16:19;100951.06;;;17.13;69.33
44349;BME280;30068;50.986;4.564;2022-12-24T01:18:44;100959.66;;;17.17;69.34
44349;BME280;30068;50.986;4.564;2022-12-24T01:21:10;100953.28;;;17.18;69.12
44349;BME280;30068;50.986;4.564;2022-12-24T01:23:35;100964.38;;;17.15;69.26
44349;BME280;30068;50.986;4.564;2022-12-24T01:26:01;100966.38;;;17.13;69.42
44349;BME280;30068;50.986;4.564;2022-12-24T01:28:26;100978.19;;;17.12;69.48
44349;BME280;30068;50.986;4.564;2022-12-24T01:30:52;100969.28;;;17.11;69.45
44349;BME280;30068;50.986;4.564;2022-12-24T01:33:17;100987.28;;;17.11;69.46
44349;BME280;30068;50.986;4.564;2022-12-24T01:35:42;100997.75;;;17.14;69.57
44349;BME280;30068;50.986;4.564;2022-12-24T01:38:08;100989.31;;;17.09;69.99
44349;BME280;30068;50.986;4.564;2022-12-24T01:40:35;100985.91;;;17.07;69.87
44349;BME280;30068;50.986;4.564;2022-12-24T01:43:20;100984.25;;;17.06;70.18
44349;BME280;30068;50.986;4.564;2022-12-24T01:45:53;100988.81;;;17.05;70.32
44349;BME280;30068;50.986;4.564;2022-12-24T01:48:33;100991.16;;;17.08;70.02
44349;BME280;30068;50.986;4.564;2022-12-24T01:51:01;100984.56;;;17.03;70.11
44349;BME280;30068;50.986;4.564;2022-12-24T01:53:27;100986.59;;;17.01;70.29
44349;BME280;30068;50.986;4.564;2022-12-24T01:55:53;100980.03;;;17.03;70.45
44349;BME280;30068;50.986;4.564;2022-12-24T01:58:19;100981.88;;;17.03;70.61
44349;BME280;30068;50.986;4.564;2022-12-24T02:00:45;100994.81;;;16.99;70.52
44349;BME280;30068;50.986;4.564;2022-12-24T02:03:10;100995.66;;;16.99;70.69
44349;BME280;30068;50.986;4.564;2022-12-24T02:08:04;100994.16;;;16.97;70.90
44349;BME280;30068;50.986;4.564;2022-12-24T02:10:30;100994.31;;;16.95;70.91
44349;BME280;30068;50.986;4.564;2022-12-24T02:12:55;100997.53;;;16.91;71.08
44349;BME280;30068;50.986;4.564;2022-12-24T02:15:21;101002.22;;;16.89;71.13
44349;BME280;30068;50.986;4.564;2022-12-24T02:28:06;101005.94;;;16.96;71.29
44349;BME280;30068;50.986;4.564;2022-12-24T02:30:54;101003.22;;;16.88;71.54
44349;BME280;30068;50.986;4.564;2022-12-24T02:33:27;101011.16;;;16.89;71.59
44349;BME280;30068;50.986;4.564;2022-12-24T02:36:05;101015.53;;;16.90;71.43
44349;BME280;30068;50.986;4.564;2022-12-24T02:38:41;101005.59;;;16.91;71.45
44349;BME280;30068;50.986;4.564;2022-12-24T02:41:12;101011.00;;;16.91;71.33
44349;BME280;30068;50.986;4.564;2022-12-24T02:43:40;101013.88;;;16.97;71.02
44349;BME280;30068;50.986;4.564;2022-12-24T02:46:17;101016.84;;;16.86;71.35
44349;BME280;30068;50.986;4.564;2022-12-24T02:48:44;101031.84;;;16.81;71.81
44349;BME280;30068;50.986;4.564;2022-12-24T02:51:12;101027.63;;;16.86;71.56
44349;BME280;30068;50.986;4.564;2022-12-24T02:53:37;101032.72;;;16.89;71.50
44349;BME280;30068;50.986;4.564;2022-12-24T02:58:51;101031.66;;;16.82;71.75
44349;BME280;30068;50.986;4.564;2022-12-24T03:09:07;101033.38;;;16.83;71.81
44349;BME280;30068;50.986;4.564;2022-12-24T03:11:39;101042.44;;;16.82;72.11
44349;BME280;30068;50.986;4.564;2022-12-24T03:14:07;101047.69;;;16.84;71.55
44349;BME280;30068;50.986;4.564;2022-12-24T03:16:32;101049.84;;;16.80;71.53
44349;BME280;30068;50.986;4.564;2022-12-24T03:18:57;101045.66;;;16.78;71.87
44349;BME280;30068;50.986;4.564;2022-12-24T03:21:26;101053.19;;;16.74;71.98
44349;BME280;30068;50.986;4.564;2022-12-24T03:23:53;101062.97;;;16.75;71.90
44349;BME280;30068;50.986;4.564;2022-12-24T03:26:18;101064.97;;;16.73;71.98
44349;BME280;30068;50.986;4.564;2022-12-24T03:28:44;101062.28;;;16.73;72.20
44349;BME280;30068;50.986;4.564;2022-12-24T03:31:10;101066.16;;;16.79;72.02
44349;BME280;30068;50.986;4.564;2022-12-24T03:33:35;101057.63;;;16.83;71.68
44349;BME280;30068;50.986;4.564;2022-12-24T03:36:01;101053.53;;;16.79;71.80
44349;BME280;30068;50.986;4.564;2022-12-24T03:38:26;101050.69;;;16.81;71.80
44349;BME280;30068;50.986;4.564;2022-12-24T03:40:52;101050.50;;;16.74;72.10
44349;BME280;30068;50.986;4.564;2022-12-24T03:43:17;101067.03;;;16.79;71.77
44349;BME280;30068;50.986;4.564;2022-12-24T03:45:42;101054.03;;;16.75;71.83
44349;BME280;30068;50.986;4.564;2022-12-24T03:48:07;101045.66;;;16.78;71.75
44349;BME280;30068;50.986;4.564;2022-12-24T03:50:32;101057.28;;;16.78;71.89
44349;BME280;30068;50.986;4.564;2022-12-24T03:52:58;101065.16;;;16.72;72.01
44349;BME280;30068;50.986;4.564;2022-12-24T03:55:23;101054.38;;;16.72;72.07
44349;BME280;30068;50.986;4.564;2022-12-24T03:57:48;101050.44;;;16.66;72.15
44349;BME280;30068;50.986;4.564;2022-12-24T04:00:14;101059.91;;;16.70;72.05
44349;BME280;30068;50.986;4.564;2022-12-24T04:02:39;101054.19;;;16.73;71.86
44349;BME280;30068;50.986;4.564;2022-12-24T04:05:05;101055.38;;;16.71;71.96
44349;BME280;30068;50.986;4.564;2022-12-24T04:07:31;101068.81;;;16.63;72.36
44349;BME280;30068;50.986;4.564;2022-12-24T04:09:56;101066.31;;;16.69;72.08
44349;BME280;30068;50.986;4.564;2022-12-24T04:12:21;101070.34;;;16.73;71.66
44349;BME280;30068;50.986;4.564;2022-12-24T04:14:46;101067.31;;;16.68;71.85
44349;BME280;30068;50.986;4.564;2022-12-24T04:17:12;101071.34;;;16.64;72.07
44349;BME280;30068;50.986;4.564;2022-12-24T04:19:37;101066.47;;;16.68;71.89
44349;BME280;30068;50.986;4.564;2022-12-24T04:22:02;101064.09;;;16.65;72.24
44349;BME280;30068;50.986;4.564;2022-12-24T04:24:28;101071.00;;;16.67;72.07
44349;BME280;30068;50.986;4.564;2022-12-24T04:26:53;101068.94;;;16.61;71.93
44349;BME280;30068;50.986;4.564;2022-12-24T04:29:18;101069.41;;;16.56;72.14
44349;BME280;30068;50.986;4.564;2022-12-24T04:31:43;101080.94;;;16.67;72.00
44349;BME280;30068;50.986;4.564;2022-12-24T04:34:09;101082.31;;;16.71;71.65
44349;BME280;30068;50.986;4.564;2022-12-24T04:36:34;101091.19;;;16.63;72.18
44349;BME280;30068;50.986;4.564;2022-12-24T04:38:59;101092.56;;;16.67;71.60
44349;BME280;30068;50.986;4.564;2022-12-24T04:41:24;101091.88;;;16.65;71.71
44349;BME280;30068;50.986;4.564;2022-12-24T04:43:51;101090.41;;;16.53;71.99
44349;BME280;30068;50.986;4.564;2022-12-24T04:46:17;101095.50;;;16.56;72.00
44349;BME280;30068;50.986;4.564;2022-12-24T04:48:43;101088.56;;;16.71;71.61
44349;BME280;30068;50.986;4.564;2022-12-24T04:51:09;101095.16;;;16.59;72.10
44349;BME280;30068;50.986;4.564;2022-12-24T04:53:34;101091.06;;;16.65;71.95
44349;BME280;30068;50.986;4.564;2022-12-24T04:56:00;101093.19;;;16.61;71.67
44349;BME280;30068;50.986;4.564;2022-12-24T04:58:25;101102.28;;;16.60;71.96
44349;BME280;30068;50.986;4.564;2022-12-24T05:00:51;101098.84;;;16.50;72.17
44349;BME280;30068;50.986;4.564;2022-12-24T05:03:16;101102.72;;;16.55;72.17
44349;BME280;30068;50.986;4.564;2022-12-24T05:05:41;101108.03;;;16.65;71.73
44349;BME280;30068;50.986;4.564;2022-12-24T05:08:07;101110.28;;;16.52;72.23
44349;BME280;30068;50.986;4.564;2022-12-24T05:10:32;101115.06;;;16.58;72.35
44349;BME280;30068;50.986;4.564;2022-12-24T05:12:57;101115.06;;;16.58;71.82
44349;BME280;30068;50.986;4.564;2022-12-24T05:15:22;101110.59;;;16.49;72.25
44349;BME280;30068;50.986;4.564;2022-12-24T05:17:48;101109.97;;;16.55;72.00
44349;BME280;30068;50.986;4.564;2022-12-24T05:20:13;101113.19;;;16.58;71.96
44349;BME280;30068;50.986;4.564;2022-12-24T05:22:38;101115.28;;;16.47;72.16
44349;BME280;30068;50.986;4.564;2022-12-24T05:25:22;101122.06;;;16.51;71.91
44349;BME280;30068;50.986;4.564;2022-12-24T05:28:06;101117.91;;;16.56;71.96
44349;BME280;30068;50.986;4.564;2022-12-24T05:30:32;101125.22;;;16.46;72.15
44349;BME280;30068;50.986;4.564;2022-12-24T05:32:57;101120.16;;;16.43;72.50
44349;BME280;30068;50.986;4.564;2022-12-24T05:35:22;101124.13;;;16.57;71.93
44349;BME280;30068;50.986;4.564;2022-12-24T05:37:47;101124.22;;;16.47;72.11
44349;BME280;30068;50.986;4.564;2022-12-24T05:40:12;101117.34;;;16.53;71.77
44349;BME280;30068;50.986;4.564;2022-12-24T05:42:38;101126.41;;;16.44;72.14
44349;BME280;30068;50.986;4.564;2022-12-24T05:45:03;101115.44;;;16.45;72.30
44349;BME280;30068;50.986;4.564;2022-12-24T05:47:28;101126.41;;;16.44;72.19
44349;BME280;30068;50.986;4.564;2022-12-24T05:49:54;101124.84;;;16.41;72.12
44349;BME280;30068;50.986;4.564;2022-12-24T05:52:19;101143.56;;;16.43;72.01
44349;BME280;30068;50.986;4.564;2022-12-24T05:54:44;101143.84;;;16.40;72.04
44349;BME280;30068;50.986;4.564;2022-12-24T05:57:09;101151.94;;;16.40;72.17
44349;BME280;30068;50.986;4.564;2022-12-24T05:59:34;101138.53;;;16.48;71.94
44349;BME280;30068;50.986;4.564;2022-12-24T06:02:00;101157.88;;;16.43;72.12
44349;BME280;30068;50.986;4.564;2022-12-24T06:04:25;101149.25;;;16.40;72.34
44349;BME280;30068;50.986;4.564;2022-12-24T06:06:50;101150.47;;;16.45;71.78
44349;BME280;30068;50.986;4.564;2022-12-24T06:09:15;101154.34;;;16.43;72.04
44349;BME280;30068;50.986;4.564;2022-12-24T06:11:41;101156.53;;;16.47;71.85
44349;BME280;30068;50.986;4.564;2022-12-24T06:14:06;101158.03;;;16.42;72.20
44349;BME280;30068;50.986;4.564;2022-12-24T06:16:31;101151.63;;;16.43;72.01
44349;BME280;30068;50.986;4.564;2022-12-24T06:18:57;101148.09;;;16.42;72.28
44349;BME280;30068;50.986;4.564;2022-12-24T06:21:22;101155.47;;;16.40;72.28
44349;BME280;30068;50.986;4.564;2022-12-24T06:23:47;101163.41;;;16.42;72.18
44349;BME280;30068;50.986;4.564;2022-12-24T06:26:14;101158.66;;;16.36;71.81
44349;BME280;30068;50.986;4.564;2022-12-24T06:28:39;101160.78;;;16.32;72.35
44349;BME280;30068;50.986;4.564;2022-12-24T06:31:05;101165.72;;;16.37;72.27
44349;BME280;30068;50.986;4.564;2022-12-24T06:33:31;101176.50;;;16.37;72.48
44349;BME280;30068;50.986;4.564;2022-12-24T06:35:56;101170.94;;;16.38;72.54
44349;BME280;30068;50.986;4.564;2022-12-24T06:38:22;101184.88;;;16.34;72.29
44349;BME280;30068;50.986;4.564;2022-12-24T06:40:47;101180.34;;;16.34;72.28
44349;BME280;30068;50.986;4.564;2022-12-24T06:43:13;101170.91;;;16.30;72.37
44349;BME280;30068;50.986;4.564;2022-12-24T06:45:38;101171.50;;;16.42;72.33
44349;BME280;30068;50.986;4.564;2022-12-24T06:48:04;101170.78;;;16.40;72.17
44349;BME280;30068;50.986;4.564;2022-12-24T06:50:31;101173.75;;;16.29;72.49
44349;BME280;30068;50.986;4.564;2022-12-24T06:52:56;101186.22;;;16.30;72.31
44349;BME280;30068;50.986;4.564;2022-12-24T06:55:21;101173.59;;;16.30;72.26
44349;BME280;30068;50.986;4.564;2022-12-24T06:57:46;101180.72;;;16.39;72.41
44349;BME280;30068;50.986;4.564;2022-12-24T07:00:12;101182.50;;;16.31;72.62
44349;BME280;30068;50.986;4.564;2022-12-24T07:02:41;101190.34;;;16.42;72.11
44349;BME280;30068;50.986;4.564;2022-12-24T07:05:07;101199.13;;;16.44;71.54
44349;BME280;30068;50.986;4.564;2022-12-24T07:07:35;101194.84;;;16.59;71.30
44349;BME280;30068;50.986;4.564;2022-12-24T07:10:00;101194.25;;;16.65;71.07
44349;BME280;30068;50.986;4.564;2022-12-24T07:12:25;101211.88;;;16.59;71.00
44349;BME280;30068;50.986;4.564;2022-12-24T07:14:50;101202.03;;;16.68;70.84
44349;BME280;30068;50.986;4.564;2022-12-24T07:17:15;101199.41;;;16.76;70.93
44349;BME280;30068;50.986;4.564;2022-12-24T07:19:41;101204.16;;;16.82;70.73
44349;BME280;30068;50.986;4.564;2022-12-24T07:22:06;101200.47;;;16.83;70.84
44349;BME280;30068;50.986;4.564;2022-12-24T07:24:31;101213.69;;;16.94;70.34
44349;BME280;30068;50.986;4.564;2022-12-24T07:26:56;101204.28;;;16.98;70.54
44349;BME280;30068;50.986;4.564;2022-12-24T07:29:21;101216.75;;;16.99;70.29
44349;BME280;30068;50.986;4.564;2022-12-24T07:31:47;101206.91;;;16.90;70.43
44349;BME280;30068;50.986;4.564;2022-12-24T07:34:12;101211.47;;;16.90;70.41
44349;BME280;30068;50.986;4.564;2022-12-24T07:36:37;101213.81;;;16.93;70.08
44349;BME280;30068;50.986;4.564;2022-12-24T07:39:02;101225.09;;;16.88;70.30
44349;BME280;30068;50.986;4.564;2022-12-24T07:41:27;101226.25;;;16.86;70.21
44349;BME280;30068;50.986;4.564;2022-12-24T07:43:53;101231.41;;;16.79;70.83
44349;BME280;30068;50.986;4.564;2022-12-24T07:46:18;101236.81;;;16.79;70.65
44349;BME280;30068;50.986;4.564;2022-12-24T07:48:43;101238.50;;;16.80;70.50
44349;BME280;30068;50.986;4.564;2022-12-24T07:51:08;101238.19;;;16.83;69.87
44349;BME280;30068;50.986;4.564;2022-12-24T07:53:34;101238.72;;;16.87;70.11
44349;BME280;30068;50.986;4.564;2022-12-24T07:55:59;101237.13;;;16.76;70.81
44349;BME280;30068;50.986;4.564;2022-12-24T07:58:24;101247.59;;;16.79;70.34
44349;BME280;30068;50.986;4.564;2022-12-24T08:00:56;101251.09;;;16.72;70.47
44349;BME280;30068;50.986;4.564;2022-12-24T08:03:22;101251.59;;;16.75;70.82
44349;BME280;30068;50.986;4.564;2022-12-24T08:05:47;101254.16;;;16.77;70.49
44349;BME280;30068;50.986;4.564;2022-12-24T08:08:12;101262.38;;;16.75;70.57
44349;BME280;30068;50.986;4.564;2022-12-24T08:10:38;101254.47;;;16.74;70.93
44349;BME280;30068;50.986;4.564;2022-12-24T08:13:04;101248.75;;;16.77;70.66
44349;BME280;30068;50.986;4.564;2022-12-24T08:15:29;101257.53;;;16.79;70.34
44349;BME280;30068;50.986;4.564;2022-12-24T08:17:54;101261.91;;;16.80;70.08
44349;BME280;30068;50.986;4.564;2022-12-24T08:20:19;101259.28;;;17.06;69.21
44349;BME280;30068;50.986;4.564;2022-12-24T08:22:44;101261.63;;;17.09;69.03
44349;BME280;30068;50.986;4.564;2022-12-24T08:25:10;101263.84;;;17.13;68.63
44349;BME280;30068;50.986;4.564;2022-12-24T08:27:35;101270.84;;;16.98;69.27
44349;BME280;30068;50.986;4.564;2022-12-24T08:30:01;101279.78;;;16.98;69.74
44349;BME280;30068;50.986;4.564;2022-12-24T08:32:26;101278.22;;;16.96;69.63
44349;BME280;30068;50.986;4.564;2022-12-24T08:34:51;101283.28;;;16.99;69.61
44349;BME280;30068;50.986;4.564;2022-12-24T08:37:16;101278.19;;;17.14;68.87
44349;BME280;30068;50.986;4.564;2022-12-24T08:39:42;101277.44;;;17.04;69.34
44349;BME280;30068;50.986;4.564;2022-12-24T08:42:07;101283.28;;;16.99;69.88
44349;BME280;30068;50.986;4.564;2022-12-24T08:44:32;101292.72;;;17.21;69.08
44349;BME280;30068;50.986;4.564;2022-12-24T08:46:57;101291.72;;;17.22;68.77
44349;BME280;30068;50.986;4.564;2022-12-24T08:49:23;101298.59;;;17.16;68.73
44349;BME280;30068;50.986;4.564;2022-12-24T08:51:48;101308.84;;;17.13;68.90
44349;BME280;30068;50.986;4.564;2022-12-24T08:54:14;101310.59;;;17.22;68.83
44349;BME280;30068;50.986;4.564;2022-12-24T08:56:39;101311.31;;;17.24;68.92
44349;BME280;30068;50.986;4.564;2022-12-24T08:59:04;101328.53;;;17.31;68.64
44349;BME280;30068;50.986;4.564;2022-12-24T09:01:30;101321.44;;;17.30;68.60
44349;BME280;30068;50.986;4.564;2022-12-24T09:03:55;101334.84;;;17.40;68.36
44349;BME280;30068;50.986;4.564;2022-12-24T09:06:21;101334.31;;;17.36;68.62
44349;BME280;30068;50.986;4.564;2022-12-24T09:08:47;101328.63;;;17.21;68.92
44349;BME280;30068;50.986;4.564;2022-12-24T09:11:13;101332.59;;;17.35;68.65
44349;BME280;30068;50.986;4.564;2022-12-24T09:13:39;101337.84;;;17.36;68.04
44349;BME280;30068;50.986;4.564;2022-12-24T09:16:04;101352.56;;;17.42;67.95
44349;BME280;30068;50.986;4.564;2022-12-24T09:18:29;101346.31;;;17.42;68.28
44349;BME280;30068;50.986;4.564;2022-12-24T09:21:01;101355.41;;;17.41;68.10
44349;BME280;30068;50.986;4.564;2022-12-24T09:23:28;101359.00;;;17.49;68.04
44349;BME280;30068;50.986;4.564;2022-12-24T09:25:53;101369.81;;;17.49;68.01
44349;BME280;30068;50.986;4.564;2022-12-24T09:28:19;101355.63;;;17.47;67.94
44349;BME280;30068;50.986;4.564;2022-12-24T09:30:44;101355.69;;;17.55;67.66
44349;BME280;30068;50.986;4.564;2022-12-24T09:33:09;101360.22;;;17.55;67.68
44349;BME280;30068;50.986;4.564;2022-12-24T09:35:36;101373.06;;;17.53;67.88
44349;BME280;30068;50.986;4.564;2022-12-24T09:38:01;101372.56;;;17.57;67.97
44349;BME280;30068;50.986;4.564;2022-12-24T09:40:37;101368.97;;;17.49;67.85
44349;BME280;30068;50.986;4.564;2022-12-24T09:43:03;101372.25;;;17.60;67.66
44349;BME280;30068;50.986;4.564;2022-12-24T09:45:31;101373.72;;;17.55;67.88
44349;BME280;30068;50.986;4.564;2022-12-24T09:48:14;101374.34;;;17.49;68.00
44349;BME280;30068;50.986;4.564;2022-12-24T09:50:58;101388.53;;;17.51;68.21
44349;BME280;30068;50.986;4.564;2022-12-24T09:55:52;101394.56;;;17.62;67.37
44349;BME280;30068;50.986;4.564;2022-12-24T09:58:24;101400.19;;;17.51;67.62
44349;BME280;30068;50.986;4.564;2022-12-24T10:00:51;101394.88;;;17.42;68.19
44349;BME280;30068;50.986;4.564;2022-12-24T10:03:17;101403.06;;;17.32;68.51
44349;BME280;30068;50.986;4.564;2022-12-24T10:06:05;101403.50;;;17.45;68.21
44349;BME280;30068;50.986;4.564;2022-12-24T10:08:30;101405.81;;;17.40;68.48
44349;BME280;30068;50.986;4.564;2022-12-24T10:11:06;101404.97;;;16.14;66.22
44349;BME280;30068;50.986;4.564;2022-12-24T10:13:47;101397.13;;;15.93;66.04
44349;BME280;30068;50.986;4.564;2022-12-24T10:18:58;101403.59;;;15.25;67.23
44349;BME280;30068;50.986;4.564;2022-12-24T10:21:36;101399.63;;;15.29;67.78
44349;BME280;30068;50.986;4.564;2022-12-24T10:26:42;101404.75;;;16.25;66.28
44349;BME280;30068;50.986;4.564;2022-12-24T10:29:13;101401.44;;;16.41;66.10
44349;BME280;30068;50.986;4.564;2022-12-24T10:31:44;101403.75;;;16.63;65.81
44349;BME280;30068;50.986;4.564;2022-12-24T10:34:16;101406.31;;;16.55;66.64
44349;BME280;30068;50.986;4.564;2022-12-24T10:36:42;101404.31;;;16.57;66.97
44349;BME280;30068;50.986;4.564;2022-12-24T10:39:21;101398.94;;;16.57;67.20
44349;BME280;30068;50.986;4.564;2022-12-24T10:41:47;101389.44;;;16.63;67.11
44349;BME280;30068;50.986;4.564;2022-12-24T10:44:15;101402.69;;;16.74;67.06
44349;BME280;30068;50.986;4.564;2022-12-24T10:46:41;101387.97;;;16.68;67.26
44349;BME280;30068;50.986;4.564;2022-12-24T10:52:03;101400.91;;;16.65;68.20
44349;BME280;30068;50.986;4.564;2022-12-24T10:54:30;101412.50;;;16.65;68.33
44349;BME280;30068;50.986;4.564;2022-12-24T10:57:03;101408.78;;;16.76;67.96
44349;BME280;30068;50.986;4.564;2022-12-24T11:02:09;101414.00;;;16.77;67.87
44349;BME280;30068;50.986;4.564;2022-12-24T11:04:49;101429.78;;;16.72;68.24
44349;BME280;30068;50.986;4.564;2022-12-24T11:07:17;101422.00;;;16.69;68.38
44349;BME280;30068;50.986;4.564;2022-12-24T11:09:43;101417.31;;;16.71;68.88
44349;BME280;30068;50.986;4.564;2022-12-24T11:12:20;101416.75;;;16.68;68.48
44349;BME280;30068;50.986;4.564;2022-12-24T11:14:46;101421.84;;;16.71;68.64
44349;BME280;30068;50.986;4.564;2022-12-24T11:17:18;101429.09;;;16.70;68.69
44349;BME280;30068;50.986;4.564;2022-12-24T11:19:46;101419.31;;;16.69;68.63
44349;BME280;30068;50.986;4.564;2022-12-24T11:22:20;101414.63;;;16.71;68.64
44349;BME280;30068;50.986;4.564;2022-12-24T11:24:46;101414.22;;;16.66;69.16
44349;BME280;30068;50.986;4.564;2022-12-24T11:27:31;101420.88;;;16.72;68.84
44349;BME280;30068;50.986;4.564;2022-12-24T11:30:18;101419.00;;;16.72;68.69
44349;BME280;30068;50.986;4.564;2022-12-24T11:32:44;101419.16;;;16.71;68.90
44349;BME280;30068;50.986;4.564;2022-12-24T11:35:16;101418.59;;;16.67;69.15
44349;BME280;30068;50.986;4.564;2022-12-24T11:37:41;101426.50;;;16.78;68.87
44349;BME280;30068;50.986;4.564;2022-12-24T11:40:17;101430.09;;;16.69;69.25
44349;BME280;30068;50.986;4.564;2022-12-24T11:42:43;101432.31;;;16.74;68.93
44349;BME280;30068;50.986;4.564;2022-12-24T11:45:21;101433.78;;;16.68;69.03
44349;BME280;30068;50.986;4.564;2022-12-24T11:47:48;101435.75;;;16.66;69.45
44349;BME280;30068;50.986;4.564;2022-12-24T11:50:35;101435.75;;;16.66;69.80
44349;BME280;30068;50.986;4.564;2022-12-24T11:53:19;101435.75;;;16.66;69.49
44349;BME280;30068;50.986;4.564;2022-12-24T11:55:49;101435.47;;;16.69;69.94
44349;BME280;30068;50.986;4.564;2022-12-24T12:01:09;101448.25;;;16.67;69.43
44349;BME280;30068;50.986;4.564;2022-12-24T12:03:40;101438.47;;;16.66;69.53
44349;BME280;30068;50.986;4.564;2022-12-24T12:06:13;101441.72;;;16.70;69.32
44349;BME280;30068;50.986;4.564;2022-12-24T12:08:40;101446.97;;;16.71;69.29
44349;BME280;30068;50.986;4.564;2022-12-24T12:11:10;101443.94;;;16.74;69.35
44349;BME280;30068;50.986;4.564;2022-12-24T12:13:36;101443.94;;;16.74;69.21
44349;BME280;30068;50.986;4.564;2022-12-24T12:18:37;101452.94;;;16.28;68.63
44349;BME280;30068;50.986;4.564;2022-12-24T12:21:23;101462.25;;;16.43;69.47
44349;BME280;30068;50.986;4.564;2022-12-24T12:24:02;101454.56;;;16.48;68.79
44349;BME280;30068;50.986;4.564;2022-12-24T12:26:28;101453.84;;;16.46;68.55
44349;BME280;30068;50.986;4.564;2022-12-24T12:28:57;101451.72;;;16.50;68.21
44349;BME280;30068;50.986;4.564;2022-12-24T12:31:25;101457.13;;;16.50;68.59
44349;BME280;30068;50.986;4.564;2022-12-24T12:34:12;101451.00;;;16.48;68.52
44349;BME280;30068;50.986;4.564;2022-12-24T12:39:07;101451.88;;;16.48;68.49
44349;BME280;30068;50.986;4.564;2022-12-24T12:44:17;101451.63;;;16.42;68.78
44349;BME280;30068;50.986;4.564;2022-12-24T12:52:01;101450.06;;;16.39;69.11
44349;BME280;30068;50.986;4.564;2022-12-24T12:57:14;101446.22;;;16.42;69.08
44349;BME280;30068;50.986;4.564;2022-12-24T12:59:47;101448.06;;;16.41;69.17
44349;BME280;30068;50.986;4.564;2022-12-24T13:07:47;101453.69;;;17.56;66.16
44349;BME280;30068;50.986;4.564;2022-12-24T13:20:24;101458.31;;;18.41;64.85
44349;BME280;30068;50.986;4.564;2022-12-24T13:25:36;101455.88;;;18.56;64.83
44349;BME280;30068;50.986;4.564;2022-12-24T13:33:48;101458.66;;;18.80;63.97
44349;BME280;30068;50.986;4.564;2022-12-24T13:36:14;101460.81;;;18.68;64.40
44349;BME280;30068;50.986;4.564;2022-12-24T13:38:52;101457.31;;;18.76;64.66
44349;BME280;30068;50.986;4.564;2022-12-24T13:49:24;101447.88;;;18.88;64.06
44349;BME280;30068;50.986;4.564;2022-12-24T13:51:51;101448.03;;;18.86;64.68
44349;BME280;30068;50.986;4.564;2022-12-24T13:54:28;101453.31;;;18.96;64.00
44349;BME280;30068;50.986;4.564;2022-12-24T13:56:54;101455.13;;;18.87;64.49
44349;BME280;30068;50.986;4.564;2022-12-24T13:59:31;101455.66;;;18.99;64.08
44349;BME280;30068;50.986;4.564;2022-12-24T14:01:58;101461.22;;;18.81;64.73
44349;BME280;30068;50.986;4.564;2022-12-24T14:04:28;101456.84;;;18.88;64.54
44349;BME280;30068;50.986;4.564;2022-12-24T14:06:56;101455.47;;;18.92;64.41
44349;BME280;30068;50.986;4.564;2022-12-24T14:09:23;101460.38;;;18.89;64.45
44349;BME280;30068;50.986;4.564;2022-12-24T14:17:01;101467.31;;;18.91;64.54
44349;BME280;30068;50.986;4.564;2022-12-24T14:22:00;101477.47;;;18.98;64.32
44349;BME280;30068;50.986;4.564;2022-12-24T14:24:33;101478.94;;;18.84;65.13
44349;BME280;30068;50.986;4.564;2022-12-24T14:27:07;101480.66;;;18.93;64.55